Time;durP1;ratioP1;P1;durP2;ratioP2;P2;SDS_P1;SDS_P2;PMS_P1;PMS_P2;Temp;Humidity;BMP_temperature;BMP_pressure;BME280_temperature;BME280_humidity;BME280_pressure;Samples;Min_cycle;Max_cycle;Signal;HPM_P1;HPM_P2
2021/12/10 00:00:23;;;;;;;28.07;16.65;;;;;;;7.10;81.92;101275.23;1768225;81;21403;-73
2021/12/10 00:02:50;;;;;;;25.85;17.50;;;;;;;7.09;82.01;101272.20;1768594;81;20928;-72
2021/12/10 00:05:25;;;;;;;29.37;18.60;;;;;;;7.10;82.09;101273.47;1768268;80;21018;-74
2021/12/10 00:07:52;;;;;;;27.15;17.32;;;;;;;7.08;82.17;101266.14;1768766;81;21045;-73
2021/12/10 00:10:24;;;;;;;34.55;18.37;;;;;;;7.06;82.33;101267.49;1768261;81;20964;-73
2021/12/10 00:12:51;;;;;;;28.80;17.35;;;;;;;7.05;82.40;101276.70;1768184;81;21446;-73
2021/12/10 00:15:21;;;;;;;37.15;20.32;;;;;;;7.05;82.50;101274.93;1768339;80;20971;-74
2021/12/10 00:17:48;;;;;;;35.23;18.65;;;;;;;7.02;82.50;101275.48;1768044;80;21374;-73
2021/12/10 00:20:16;;;;;;;32.33;20.48;;;;;;;7.01;82.68;101279.01;1767970;80;21217;-73
2021/12/10 00:22:52;;;;;;;30.40;17.20;;;;;;;7.01;82.67;101281.61;1768221;80;20873;-73
2021/12/10 00:25:20;;;;;;;32.38;18.00;;;;;;;6.97;82.71;101284.77;1767916;80;21513;-72
2021/12/10 00:27:49;;;;;;;28.12;18.40;;;;;;;6.97;82.86;101291.74;1768317;81;20932;-73
2021/12/10 00:30:25;;;;;;;27.82;17.52;;;;;;;6.99;82.93;101292.55;1768162;81;20999;-72
2021/12/10 00:33:10;;;;;;;27.00;17.52;;;;;;;7.01;82.91;101288.13;1768255;80;21176;-73
2021/12/10 00:35:32;;;;;;;27.27;17.70;;;;;;;7.04;82.91;101294.08;1767003;80;21342;-72
2021/12/10 00:37:59;;;;;;;28.45;16.80;;;;;;;7.07;82.57;101293.14;1768181;81;20932;-72
2021/12/10 00:40:26;;;;;;;29.52;16.97;;;;;;;7.08;82.64;101288.31;1768104;81;21007;-72
2021/12/10 00:42:53;;;;;;;27.95;17.15;;;;;;;7.11;82.51;101292.56;1768252;81;20889;-72
2021/12/10 00:45:22;;;;;;;22.77;14.98;;;;;;;7.17;82.47;101297.58;1768264;81;21200;-72
2021/12/10 00:47:50;;;;;;;24.85;16.07;;;;;;;7.22;82.14;101298.26;1768205;81;20939;-72
2021/12/10 00:50:21;;;;;;;22.98;15.68;;;;;;;7.23;81.94;101303.43;1768129;81;21079;-72
2021/12/10 00:52:48;;;;;;;22.25;14.73;;;;;;;7.30;81.82;101298.00;1768150;80;20925;-74
2021/12/10 00:55:15;;;;;;;23.42;14.45;;;;;;;7.36;81.68;101304.28;1768197;81;20873;-72
2021/12/10 00:57:42;;;;;;;23.15;14.00;;;;;;;7.41;81.40;101298.47;1768699;80;21124;-72
2021/12/10 01:00:18;;;;;;;27.25;14.98;;;;;;;7.44;81.08;101304.41;1771818;80;20960;-73
2021/12/10 01:02:46;;;;;;;30.80;17.32;;;;;;;7.45;80.74;101302.68;1769572;81;21430;-72
2021/12/10 01:05:14;;;;;;;26.33;15.88;;;;;;;7.43;80.47;101305.80;1768566;81;20893;-73
2021/12/10 01:07:42;;;;;;;21.73;14.03;;;;;;;7.40;80.31;101307.19;1768940;80;20896;-72
2021/12/10 01:10:26;;;;;;;23.85;15.50;;;;;;;7.39;80.35;101304.20;1768990;80;21742;-72
2021/12/10 01:12:57;;;;;;;20.97;14.33;;;;;;;7.39;80.30;101300.28;1768882;80;20873;-72
2021/12/10 01:15:42;;;;;;;24.43;15.30;;;;;;;7.37;80.21;101302.94;1768651;81;20905;-72
2021/12/10 01:23:48;;;;;;;20.55;14.87;;;;;;;7.31;80.20;101299.69;1768192;81;21164;-73
2021/12/10 01:26:22;;;;;;;23.40;13.62;;;;;;;7.29;80.11;101295.83;1766844;81;20952;-73
2021/12/10 01:28:44;;;;;;;22.17;15.15;;;;;;;7.25;79.99;101300.78;1766432;81;21383;-72
2021/12/10 01:31:11;;;;;;;22.15;14.95;;;;;;;7.20;80.00;101296.16;1766620;81;21394;-75
2021/12/10 01:33:39;;;;;;;21.25;14.80;;;;;;;7.15;80.08;101296.78;1768209;80;20885;-72
2021/12/10 01:36:09;;;;;;;22.20;14.73;;;;;;;7.11;80.27;101299.09;1768144;81;21553;-72
2021/12/10 01:38:39;;;;;;;25.75;15.50;;;;;;;7.10;80.47;101304.77;1768140;81;20928;-73
2021/12/10 01:41:10;;;;;;;21.85;13.28;;;;;;;7.13;80.52;101309.86;1767117;81;20873;-73
2021/12/10 01:43:39;;;;;;;23.47;13.05;;;;;;;7.13;80.57;101313.77;1768034;81;20924;-73
2021/12/10 01:46:13;;;;;;;23.62;14.43;;;;;;;7.13;80.59;101314.23;1768475;81;21078;-72
2021/12/10 01:48:45;;;;;;;23.42;13.83;;;;;;;7.11;80.64;101306.45;1777642;79;21373;-74
2021/12/10 01:51:15;;;;;;;19.57;13.18;;;;;;;7.12;80.68;101312.55;1778702;80;20895;-72
2021/12/10 01:53:43;;;;;;;19.10;13.32;;;;;;;7.13;80.70;101314.23;1738966;82;20873;-72
2021/12/10 01:56:15;;;;;;;17.27;12.75;;;;;;;7.13;80.75;101311.16;1739214;82;20979;-72
2021/12/10 01:58:44;;;;;;;21.93;15.15;;;;;;;7.15;80.81;101308.05;1722995;83;20893;-73
2021/12/10 02:01:28;;;;;;;23.32;14.28;;;;;;;7.17;80.77;101314.53;1738941;82;21167;-72
2021/12/10 02:03:55;;;;;;;19.25;13.10;;;;;;;7.17;80.82;101315.37;1777709;79;20915;-72
2021/12/10 02:06:21;;;;;;;19.75;12.10;;;;;;;7.16;80.63;101311.50;1778649;80;20888;-74
2021/12/10 02:08:49;;;;;;;16.73;11.55;;;;;;;7.13;80.58;101322.91;1778637;80;21533;-73
2021/12/10 02:11:16;;;;;;;19.50;12.47;;;;;;;7.11;80.50;101322.56;1739235;81;20892;-73
2021/12/10 02:13:44;;;;;;;19.02;13.30;;;;;;;7.09;80.39;101320.45;1722783;83;21959;-74
2021/12/10 02:16:11;;;;;;;17.77;11.55;;;;;;;7.08;80.50;101315.70;1738940;82;20961;-74
2021/12/10 02:18:37;;;;;;;17.23;11.83;;;;;;;7.09;80.50;101315.23;1738939;82;20944;-75
2021/12/10 02:21:13;;;;;;;14.90;11.90;;;;;;;7.07;80.38;101315.31;1735768;82;21162;-74
2021/12/10 02:23:45;;;;;;;16.23;11.15;;;;;;;7.06;80.50;101314.89;1715633;83;20996;-74
2021/12/10 02:26:14;;;;;;;16.30;11.70;;;;;;;7.09;80.62;101319.99;1714960;82;21222;-73
2021/12/10 02:28:41;;;;;;;15.38;12.45;;;;;;;7.14;80.59;101320.70;1716016;83;20993;-74
2021/12/10 02:31:08;;;;;;;18.15;12.23;;;;;;;7.19;80.56;101318.78;1718838;81;20952;-74
2021/12/10 02:33:36;;;;;;;20.20;13.32;;;;;;;7.29;80.48;101318.46;1717026;82;20948;-73
2021/12/10 02:36:04;;;;;;;19.00;13.50;;;;;;;7.32;80.19;101323.12;1715952;82;20866;-72
2021/12/10 02:38:31;;;;;;;19.70;13.68;;;;;;;7.31;79.95;101326.62;1715766;83;21165;-73
2021/12/10 02:40:58;;;;;;;22.10;13.98;;;;;;;7.32;79.92;101327.05;1715517;82;21008;-73
2021/12/10 02:43:25;;;;;;;19.37;12.93;;;;;;;7.32;79.65;101326.20;1715673;83;20940;-74
2021/12/10 02:45:55;;;;;;;18.05;12.35;;;;;;;7.28;79.38;101328.52;1715547;83;21413;-73
2021/12/10 02:48:22;;;;;;;24.57;12.73;;;;;;;7.22;79.41;101329.10;1715756;82;20973;-73
2021/12/10 02:50:48;;;;;;;17.52;11.85;;;;;;;7.20;79.29;101335.28;1715707;83;21135;-74
2021/12/10 02:53:22;;;;;;;15.13;11.60;;;;;;;7.14;79.17;101331.60;1715357;83;20890;-73
2021/12/10 02:55:45;;;;;;;16.77;12.40;;;;;;;7.10;79.20;101332.61;1715590;82;20897;-72
2021/12/10 02:58:13;;;;;;;22.77;14.40;;;;;;;7.05;79.15;101339.28;1715637;83;20913;-73
2021/12/10 03:00:54;;;;;;;27.75;15.20;;;;;;;7.02;79.25;101339.37;1715770;83;20993;-75
2021/12/10 03:03:20;;;;;;;23.75;15.15;;;;;;;6.99;79.26;101336.88;1715749;82;21403;-73
2021/12/10 03:05:47;;;;;;;20.40;13.83;;;;;;;6.97;79.35;101343.89;1715575;82;20956;-74
2021/12/10 03:08:14;;;;;;;26.60;16.97;;;;;;;6.91;79.56;101343.63;1715515;83;20889;-75
2021/12/10 03:10:41;;;;;;;19.07;13.18;;;;;;;6.92;79.85;101345.81;1715783;83;20902;-72
2021/12/10 03:13:08;;;;;;;25.48;15.60;;;;;;;6.90;79.83;101341.09;1715657;83;20937;-73
2021/12/10 03:15:35;;;;;;;25.40;16.73;;;;;;;6.87;79.90;101338.58;1715615;82;21841;-74
2021/12/10 03:18:06;;;;;;;24.45;16.02;;;;;;;6.83;80.04;101336.08;1715474;83;21044;-74
2021/12/10 03:20:34;;;;;;;24.77;16.48;;;;;;;6.83;80.09;101333.93;1715876;82;20925;-74
2021/12/10 03:23:01;;;;;;;22.25;15.00;;;;;;;6.84;80.12;101334.31;1715474;82;20901;-73
2021/12/10 03:25:28;;;;;;;24.90;14.68;;;;;;;6.83;80.23;101335.23;1715850;83;20988;-74
2021/12/10 03:27:55;;;;;;;20.08;13.98;;;;;;;6.82;80.33;101335.66;1715587;82;21163;-74
2021/12/10 03:30:26;;;;;;;24.05;16.80;;;;;;;6.81;80.42;101334.43;1715901;82;20897;-73
2021/12/10 03:32:53;;;;;;;23.35;15.03;;;;;;;6.78;80.37;101339.30;1715572;83;20897;-73
2021/12/10 03:36:31;;;;;;;23.65;14.65;;;;;;;6.74;80.39;101337.69;1797778;79;22543;-73
2021/12/10 03:39:00;;;;;;;23.22;14.47;;;;;;;6.64;80.38;101345.39;1758392;80;20908;-73
2021/12/10 03:41:27;;;;;;;19.45;14.60;;;;;;;6.57;80.55;101343.89;1758315;81;21117;-74
2021/12/10 03:43:54;;;;;;;22.90;15.68;;;;;;;6.49;80.83;101346.75;1758409;80;21015;-72
2021/12/10 03:46:22;;;;;;;22.02;14.45;;;;;;;6.44;81.08;101349.47;1758319;80;20885;-74
2021/12/10 03:48:50;;;;;;;20.40;14.55;;;;;;;6.42;81.31;101359.11;1758176;80;20979;-73
2021/12/10 03:51:22;;;;;;;24.10;15.80;;;;;;;6.43;81.46;101359.95;1758341;80;20953;-73
2021/12/10 03:53:49;;;;;;;26.57;17.85;;;;;;;6.41;81.57;101361.75;1758411;80;21125;-76
2021/12/10 03:56:19;;;;;;;26.30;15.38;;;;;;;6.41;81.65;101364.36;1758269;80;21550;-73
2021/12/10 03:58:46;;;;;;;25.27;16.70;;;;;;;6.42;81.70;101362.14;1758525;81;20932;-73
2021/12/10 04:01:15;;;;;;;21.45;14.55;;;;;;;6.45;81.69;101360.77;1760143;78;20854;-74
2021/12/10 04:03:43;;;;;;;22.20;13.83;;;;;;;6.49;81.74;101368.02;1760586;78;20872;-72
2021/12/10 04:06:10;;;;;;;20.62;14.25;;;;;;;6.54;81.86;101366.98;1758499;80;21885;-74
2021/12/10 04:08:37;;;;;;;22.93;14.68;;;;;;;6.61;81.77;101359.37;1758261;81;20916;-72
2021/12/10 04:11:05;;;;;;;25.20;13.83;;;;;;;6.64;81.60;101368.84;1758335;80;20947;-74
2021/12/10 04:13:32;;;;;;;23.30;15.25;;;;;;;6.62;81.60;101366.27;1758542;80;20943;-74
2021/12/10 04:16:00;;;;;;;24.30;15.28;;;;;;;6.62;81.68;101368.88;1758469;81;21394;-73
2021/12/10 04:18:28;;;;;;;24.70;16.05;;;;;;;6.65;81.80;101362.75;1758271;81;21952;-73
2021/12/10 04:20:55;;;;;;;28.23;16.50;;;;;;;6.66;81.73;101369.65;1758183;80;20936;-74
2021/12/10 04:23:24;;;;;;;26.68;16.05;;;;;;;6.72;81.72;101367.31;1758127;81;21457;-73
2021/12/10 04:25:51;;;;;;;27.40;17.17;;;;;;;6.80;81.72;101366.17;1758366;80;20900;-72
2021/12/10 04:28:20;;;;;;;24.60;15.00;;;;;;;6.83;81.52;101367.82;1758276;80;20912;-73
2021/12/10 04:30:48;;;;;;;20.65;15.43;;;;;;;6.81;81.48;101369.63;1758266;80;21133;-72
2021/12/10 04:33:22;;;;;;;19.85;13.60;;;;;;;6.83;81.60;101368.66;1758098;80;20896;-73
2021/12/10 04:35:51;;;;;;;26.15;17.00;;;;;;;6.83;81.56;101365.21;1750058;80;20996;-74
2021/12/10 04:38:18;;;;;;;28.47;14.95;;;;;;;6.84;81.62;101361.23;1745133;80;20971;-74
2021/12/10 04:40:47;;;;;;;27.17;14.70;;;;;;;6.87;81.54;101368.55;1745145;80;21592;-72
2021/12/10 04:43:20;;;;;;;19.48;14.03;;;;;;;6.92;81.49;101373.19;1745134;81;21143;-73
2021/12/10 04:45:47;;;;;;;23.55;13.43;;;;;;;6.95;81.41;101370.02;1745264;81;20980;-73
2021/12/10 04:48:15;;;;;;;24.37;15.10;;;;;;;6.96;81.30;101371.73;1744377;81;20993;-72
2021/12/10 04:50:42;;;;;;;20.80;13.68;;;;;;;6.98;81.38;101380.36;1744635;80;20893;-73
2021/12/10 04:53:09;;;;;;;23.57;15.18;;;;;;;6.99;81.51;101376.84;1744708;81;20861;-75
2021/12/10 04:55:40;;;;;;;21.73;14.18;;;;;;;7.04;81.42;101381.89;1744689;81;21140;-75
2021/12/10 04:58:20;;;;;;;22.98;14.90;;;;;;;7.06;81.23;101384.85;1744845;81;20928;-73
2021/12/10 05:00:50;;;;;;;22.98;13.78;;;;;;;7.09;81.24;101390.41;1732854;81;20862;-73
2021/12/10 05:03:16;;;;;;;19.65;12.65;;;;;;;7.13;81.02;101395.09;1744532;81;21418;-71
2021/12/10 05:05:46;;;;;;;19.15;14.35;;;;;;;7.17;80.85;101395.39;1744564;81;21410;-72
2021/12/10 05:08:14;;;;;;;19.87;13.22;;;;;;;7.17;80.69;101390.17;1744513;81;21324;-72
2021/12/10 05:10:41;;;;;;;18.87;13.22;;;;;;;7.14;80.74;101387.22;1744507;81;21253;-72
2021/12/10 05:13:08;;;;;;;20.27;15.68;;;;;;;7.14;80.92;101391.59;1744560;80;20968;-72
2021/12/10 05:15:37;;;;;;;18.87;13.85;;;;;;;7.17;80.87;101392.33;1744522;81;21015;-71
2021/12/10 05:18:05;;;;;;;20.30;14.13;;;;;;;7.18;80.80;101388.83;1744582;81;20897;-73
2021/12/10 05:20:37;;;;;;;19.50;14.63;;;;;;;7.18;80.65;101397.08;1744726;81;21156;-73
2021/12/10 05:23:04;;;;;;;20.88;14.65;;;;;;;7.19;80.61;101399.65;1744589;81;20928;-72
2021/12/10 05:25:32;;;;;;;23.50;14.03;;;;;;;7.23;80.47;101401.72;1744562;80;20908;-73
2021/12/10 05:27:59;;;;;;;18.50;13.00;;;;;;;7.21;80.40;101401.76;1744815;82;20909;-72
2021/12/10 05:30:31;;;;;;;22.17;13.78;;;;;;;7.18;80.58;101399.69;1745101;82;20909;-72
2021/12/10 05:32:58;;;;;;;19.92;13.00;;;;;;;7.17;80.65;101398.84;1746891;81;21138;-73
2021/12/10 05:35:25;;;;;;;20.37;14.58;;;;;;;7.17;80.63;101409.73;1751278;79;21438;-72
2021/12/10 05:37:52;;;;;;;24.20;14.28;;;;;;;7.15;80.70;101402.41;1758009;80;20931;-73
2021/12/10 05:40:19;;;;;;;20.08;14.20;;;;;;;7.14;80.71;101404.17;1758207;81;20979;-73
2021/12/10 05:42:46;;;;;;;27.95;14.45;;;;;;;7.14;80.65;101408.55;1757994;81;20940;-73
2021/12/10 05:45:15;;;;;;;19.57;13.80;;;;;;;7.16;80.75;101409.31;1757776;81;21959;-72
2021/12/10 05:47:43;;;;;;;20.85;12.95;;;;;;;7.17;80.66;101412.34;1757792;80;21302;-73
2021/12/10 05:50:10;;;;;;;23.22;13.03;;;;;;;7.16;80.81;101413.23;1757921;80;20833;-73
2021/12/10 05:52:37;;;;;;;19.40;13.80;;;;;;;7.18;81.13;101421.86;1757955;80;21000;-74
2021/12/10 05:55:05;;;;;;;21.07;14.55;;;;;;;7.20;81.09;101414.84;1757866;81;20916;-75
2021/12/10 05:57:32;;;;;;;19.27;13.38;;;;;;;7.23;80.89;101418.21;1758049;81;21812;-74
2021/12/10 05:59:59;;;;;;;17.75;13.30;;;;;;;7.22;80.86;101428.23;1758070;80;20872;-74
2021/12/10 06:02:28;;;;;;;16.95;11.80;;;;;;;7.23;81.30;101426.04;1766328;81;20967;-77
2021/12/10 06:04:55;;;;;;;22.82;14.50;;;;;;;7.28;81.02;101431.56;1758100;80;20971;-74
2021/12/10 06:07:22;;;;;;;19.37;12.85;;;;;;;7.25;80.92;101428.15;1757890;81;20924;-76
2021/12/10 06:09:49;;;;;;;17.45;12.07;;;;;;;7.25;80.98;101432.52;1757956;81;21120;-76
2021/12/10 06:12:16;;;;;;;22.15;14.23;;;;;;;7.25;81.48;101436.44;1758341;80;20920;-74
2021/12/10 06:14:44;;;;;;;19.92;14.23;;;;;;;7.34;82.06;101433.52;1757924;81;21596;-75
2021/12/10 06:17:11;;;;;;;22.73;15.72;;;;;;;7.44;81.84;101438.80;1757830;81;20924;-74
2021/12/10 06:19:39;;;;;;;20.77;13.58;;;;;;;7.50;81.26;101444.28;1757836;80;20916;-74
2021/12/10 06:22:06;;;;;;;18.87;13.15;;;;;;;7.53;80.86;101443.33;1757869;80;21142;-73
2021/12/10 06:24:33;;;;;;;20.10;13.03;;;;;;;7.55;80.65;101444.97;1757817;81;20888;-74
2021/12/10 06:27:00;;;;;;;18.57;13.70;;;;;;;7.52;80.47;101442.48;1757835;81;20916;-77
2021/12/10 06:29:28;;;;;;;24.25;16.15;;;;;;;7.52;80.66;101442.94;1757722;80;20975;-75
2021/12/10 06:31:55;;;;;;;25.27;17.32;;;;;;;7.53;80.77;101438.10;1757698;81;21496;-76
2021/12/10 06:34:22;;;;;;;23.12;16.00;;;;;;;7.56;80.66;101436.25;1757929;81;21117;-81
2021/12/10 06:36:49;;;;;;;28.90;17.40;;;;;;;7.57;80.84;101437.09;1757954;80;21397;-81
2021/12/10 06:39:26;;;;;;;26.20;15.98;;;;;;;7.62;80.68;101437.78;1758022;81;20987;-80
2021/12/10 06:41:53;;;;;;;;;;;;;;;7.67;80.55;101434.13;1761259;81;21323;-81
2021/12/10 06:44:21;;;;;;;26.30;16.27;;;;;;;7.71;80.40;101432.23;1758146;81;20191;-81
2021/12/10 06:46:48;;;;;;;26.97;17.82;;;;;;;7.74;80.33;101433.45;1758034;80;21994;-82
2021/12/10 06:49:16;;;;;;;29.27;17.40;;;;;;;7.79;80.52;101436.75;1758090;81;20964;-80
2021/12/10 06:51:43;;;;;;;24.25;16.45;;;;;;;7.87;80.49;101433.88;1758210;81;21003;-74
2021/12/10 06:54:10;;;;;;;24.70;15.83;;;;;;;7.94;80.22;101429.27;1757923;81;20869;-72
2021/12/10 06:56:37;;;;;;;23.92;16.65;;;;;;;7.97;79.81;101437.00;1758055;81;21088;-71
2021/12/10 06:59:05;;;;;;;27.80;17.07;;;;;;;7.95;79.70;101441.43;1757774;81;21191;-72
2021/12/10 07:01:36;;;;;;;27.85;16.40;;;;;;;7.99;79.54;101445.64;1757847;81;20944;-73
2021/12/10 07:04:05;;;;;;;24.27;15.05;;;;;;;7.98;79.44;101450.02;1759526;81;20888;-75
2021/12/10 07:06:32;;;;;;;25.30;17.00;;;;;;;8.00;79.66;101449.94;1760935;80;20979;-72
2021/12/10 07:09:00;;;;;;;28.02;16.87;;;;;;;8.03;79.38;101449.39;1758247;81;20968;-73
2021/12/10 07:11:28;;;;;;;28.98;19.05;;;;;;;8.03;79.50;101449.85;1757977;80;20888;-73
2021/12/10 07:13:57;;;;;;;28.15;19.00;;;;;;;8.08;79.54;101451.83;1757954;81;20897;-72
2021/12/10 07:16:25;;;;;;;27.27;19.35;;;;;;;8.14;79.37;101450.74;1758186;81;20928;-73
2021/12/10 07:18:52;;;;;;;26.95;17.90;;;;;;;8.18;79.12;101456.26;1757737;81;20979;-73
2021/12/10 07:21:19;;;;;;;33.95;20.50;;;;;;;8.17;79.00;101455.41;1758039;81;20865;-72
2021/12/10 07:23:46;;;;;;;29.77;18.90;;;;;;;8.17;78.84;101458.03;1758023;80;21659;-72
2021/12/10 07:26:13;;;;;;;31.73;18.05;;;;;;;8.18;78.72;101451.03;1758003;80;20925;-72
2021/12/10 07:28:40;;;;;;;30.62;20.55;;;;;;;8.19;78.90;101458.83;1757861;81;20912;-74
2021/12/10 07:31:07;;;;;;;35.78;20.50;;;;;;;8.24;78.86;101463.42;1758193;81;20976;-73
2021/12/10 07:33:35;;;;;;;34.98;20.75;;;;;;;8.30;78.98;101461.05;1757898;80;21011;-74
2021/12/10 07:36:04;;;;;;;35.33;21.95;;;;;;;8.38;78.75;101459.44;1753580;80;21099;-73
2021/12/10 07:38:30;;;;;;;34.23;22.07;;;;;;;8.43;78.50;101462.80;1744428;80;20849;-72
2021/12/10 07:40:57;;;;;;;37.45;23.92;;;;;;;8.43;78.40;101464.09;1744553;81;20965;-72
2021/12/10 07:43:24;;;;;;;44.15;25.80;;;;;;;8.44;78.20;101464.48;1744423;81;20897;-74
2021/12/10 07:45:51;;;;;;;51.35;26.70;;;;;;;8.41;78.10;101467.22;1744810;80;21360;-76
2021/12/10 07:48:20;;;;;;;41.53;25.68;;;;;;;8.43;78.08;101468.02;1744353;81;21122;-73
2021/12/10 07:50:58;;;;;;;38.17;25.55;;;;;;;8.46;78.16;101473.13;1744706;81;20881;-74
2021/12/10 07:53:29;;;;;;;41.95;26.73;;;;;;;8.51;78.17;101475.09;1744566;81;20893;-75
2021/12/10 07:55:58;;;;;;;46.00;25.82;;;;;;;8.56;78.19;101475.80;1744640;82;20945;-70
2021/12/10 07:58:26;;;;;;;39.98;25.82;;;;;;;8.60;78.15;101472.12;1744535;81;20905;-72
2021/12/10 08:00:53;;;;;;;41.40;26.77;;;;;;;8.66;78.12;101474.52;1744418;81;21138;-74
2021/12/10 08:03:20;;;;;;;44.53;25.97;;;;;;;8.71;77.73;101478.27;1744500;81;20964;-76
2021/12/10 08:05:47;;;;;;;49.03;27.07;;;;;;;8.69;77.59;101474.85;1744549;80;20976;-76
2021/12/10 08:08:14;;;;;;;42.15;26.45;;;;;;;8.71;77.41;101473.91;1744351;81;21011;-75
2021/12/10 08:10:42;;;;;;;36.23;22.98;;;;;;;8.70;77.11;101470.03;1744506;81;20937;-75
2021/12/10 08:13:08;;;;;;;36.68;25.20;;;;;;;8.67;77.27;101468.39;1744615;81;22199;-75
2021/12/10 08:15:37;;;;;;;39.35;27.27;;;;;;;8.62;77.25;101459.85;1744486;81;20924;-74
2021/12/10 08:18:05;;;;;;;39.95;25.12;;;;;;;8.60;77.47;101460.83;1744557;81;20972;-74
2021/12/10 08:20:32;;;;;;;41.00;26.17;;;;;;;8.59;77.61;101452.14;1744834;80;21423;-70
2021/12/10 08:23:00;;;;;;;48.17;29.52;;;;;;;8.63;77.53;101459.42;1744650;81;20932;-73
2021/12/10 08:25:28;;;;;;;47.78;29.32;;;;;;;8.62;77.39;101453.31;1744694;82;21394;-73
2021/12/10 08:27:55;;;;;;;47.50;31.05;;;;;;;8.63;77.31;101453.73;1744457;81;20932;-73
2021/12/10 08:30:23;;;;;;;46.75;29.52;;;;;;;8.63;77.26;101456.81;1744726;81;21418;-72
2021/12/10 08:32:50;;;;;;;49.90;28.70;;;;;;;8.63;77.33;101448.97;1744683;81;20858;-72
2021/12/10 08:35:20;;;;;;;53.13;29.80;;;;;;;8.61;77.43;101447.70;1745666;82;20869;-73
2021/12/10 08:37:50;;;;;;;53.45;29.37;;;;;;;8.59;77.53;101444.30;1759253;78;21896;-74
2021/12/10 08:40:19;;;;;;;48.13;29.95;;;;;;;8.58;77.62;101443.03;1759138;81;20927;-75
2021/12/10 08:42:46;;;;;;;54.58;27.30;;;;;;;8.56;77.64;101445.73;1758094;81;20936;-71
2021/12/10 08:45:14;;;;;;;42.93;26.37;;;;;;;8.54;77.73;101436.22;1757955;81;20896;-73
2021/12/10 08:47:40;;;;;;;43.13;27.73;;;;;;;8.56;77.72;101438.32;1757965;81;20845;-74
2021/12/10 08:50:08;;;;;;;39.03;24.35;;;;;;;8.54;77.73;101435.79;1758008;81;21144;-74
2021/12/10 08:52:35;;;;;;;40.15;23.62;;;;;;;8.52;77.82;101434.15;1757848;81;21536;-73
2021/12/10 08:55:04;;;;;;;40.35;24.63;;;;;;;8.55;78.00;101437.94;1757979;81;20901;-74
2021/12/10 08:57:31;;;;;;;32.13;23.10;;;;;;;8.59;78.05;101430.37;1757850;81;20928;-73
2021/12/10 08:59:58;;;;;;;38.10;24.30;;;;;;;8.65;78.10;101426.23;1757913;81;20940;-73
2021/12/10 09:02:25;;;;;;;38.25;24.75;;;;;;;8.73;78.02;101424.61;1758019;81;22126;-73
2021/12/10 09:04:52;;;;;;;39.63;23.50;;;;;;;8.78;77.80;101418.30;1757822;81;20885;-74
2021/12/10 09:07:19;;;;;;;40.40;25.85;;;;;;;8.85;77.71;101418.91;1757419;81;20889;-72
2021/12/10 09:09:46;;;;;;;40.40;25.92;;;;;;;8.91;77.53;101420.82;1757909;81;20849;-74
2021/12/10 09:12:21;;;;;;;39.92;25.35;;;;;;;9.02;77.35;101422.12;1758138;81;20833;-74
2021/12/10 09:14:51;;;;;;;38.48;24.40;;;;;;;9.09;77.19;101425.77;1758047;81;21141;-74
2021/12/10 09:17:23;;;;;;;48.25;24.07;;;;;;;9.19;76.99;101421.45;1757739;81;21490;-74
2021/12/10 09:19:52;;;;;;;39.80;24.18;;;;;;;9.32;76.95;101423.95;1757841;81;20896;-73
2021/12/10 09:22:19;;;;;;;36.35;23.38;;;;;;;9.46;76.71;101420.75;1758067;81;20912;-74
2021/12/10 09:24:45;;;;;;;38.02;23.80;;;;;;;9.59;76.10;101416.69;1757884;80;20959;-74
2021/12/10 09:27:12;;;;;;;33.33;21.97;;;;;;;9.68;75.75;101425.92;1757847;81;21124;-74
2021/12/10 09:29:42;;;;;;;31.55;20.12;;;;;;;9.73;75.16;101421.33;1758071;81;20904;-74
2021/12/10 09:32:11;;;;;;;29.32;20.62;;;;;;;9.77;75.03;101423.36;1757633;81;20928;-75
2021/12/10 09:34:38;;;;;;;28.98;19.37;;;;;;;9.78;74.79;101417.19;1757826;80;20972;-74
2021/12/10 09:37:06;;;;;;;28.30;20.23;;;;;;;9.74;74.58;101417.80;1751826;80;20928;-74
2021/12/10 09:39:33;;;;;;;24.07;18.52;;;;;;;9.71;74.61;101419.23;1744514;82;21117;-73
2021/12/10 09:41:59;;;;;;;28.02;19.48;;;;;;;9.67;74.73;101415.91;1744667;81;20842;-72
2021/12/10 09:44:26;;;;;;;25.45;16.70;;;;;;;9.65;74.80;101419.05;1744664;81;20893;-73
2021/12/10 09:46:53;;;;;;;23.40;17.07;;;;;;;9.64;74.73;101412.56;1745028;81;21331;-74
2021/12/10 09:49:23;;;;;;;25.40;16.45;;;;;;;9.61;74.63;101411.40;1744676;81;20893;-73
2021/12/10 09:51:54;;;;;;;23.42;15.38;;;;;;;9.57;74.84;101410.66;1744799;81;21124;-73
2021/12/10 09:54:24;;;;;;;23.73;15.43;;;;;;;9.57;74.87;101409.82;1744563;81;20869;-73
2021/12/10 09:56:58;;;;;;;20.08;14.55;;;;;;;9.56;74.93;101406.36;1744428;82;20896;-74
2021/12/10 09:59:25;;;;;;;21.60;15.83;;;;;;;9.56;74.99;101399.81;1744677;81;21019;-74
2021/12/10 10:01:52;;;;;;;24.70;15.45;;;;;;;9.59;75.17;101404.06;1744879;81;21343;-74
2021/12/10 10:04:20;;;;;;;26.25;15.53;;;;;;;9.66;74.98;101401.09;1744747;81;21640;-73
2021/12/10 10:06:52;;;;;;;25.65;16.95;;;;;;;9.71;74.52;101396.97;1744988;82;20957;-73
2021/12/10 10:09:20;;;;;;;23.27;15.55;;;;;;;9.74;74.67;101400.31;1747293;78;20889;-75
2021/12/10 10:11:51;;;;;;;22.00;15.53;;;;;;;9.82;74.51;101401.73;1746520;81;20913;-73
2021/12/10 10:14:18;;;;;;;23.05;16.48;;;;;;;9.91;73.99;101401.33;1744627;81;21461;-73
2021/12/10 10:16:45;;;;;;;20.52;15.13;;;;;;;10.00;73.87;101403.99;1744478;81;21311;-75
2021/12/10 10:19:13;;;;;;;21.82;14.15;;;;;;;10.08;73.62;101396.18;1744204;82;20928;-72
2021/12/10 10:21:43;;;;;;;23.30;15.20;;;;;;;10.19;73.50;101399.63;1744703;81;21424;-72
2021/12/10 10:24:11;;;;;;;19.90;14.63;;;;;;;10.31;73.30;101398.23;1744134;81;21050;-72
2021/12/10 10:26:43;;;;;;;27.48;17.12;;;;;;;10.40;72.40;101410.91;1744868;81;21030;-74
2021/12/10 10:29:14;;;;;;;23.50;15.68;;;;;;;10.46;72.12;101400.61;1744522;81;21536;-73
2021/12/10 10:31:57;;;;;;;17.62;13.30;;;;;;;10.50;71.64;101399.55;1745285;81;21004;-75
2021/12/10 10:34:24;;;;;;;19.87;14.13;;;;;;;10.50;71.23;101400.86;1744688;81;21335;-72
2021/12/10 10:36:52;;;;;;;23.60;14.35;;;;;;;10.45;71.22;101389.28;1747432;80;20951;-75
2021/12/10 10:39:23;;;;;;;16.70;12.15;;;;;;;10.45;71.56;101387.09;1757874;81;21476;-74
2021/12/10 10:41:54;;;;;;;18.77;13.13;;;;;;;10.48;71.60;101390.44;1757971;80;21167;-74
2021/12/10 10:44:23;;;;;;;18.50;13.62;;;;;;;10.50;71.24;101386.44;1757800;81;20960;-75
2021/12/10 10:46:53;;;;;;;17.73;14.20;;;;;;;10.48;71.07;101381.72;1757923;81;20865;-76
2021/12/10 10:49:34;;;;;;;16.85;13.05;;;;;;;10.43;71.31;101379.79;1757871;80;21398;-74
2021/12/10 10:52:29;;;;;;;16.70;12.63;;;;;;;10.37;71.58;101376.51;1752853;81;20893;-75
2021/12/10 10:55:10;;;;;;;18.23;13.03;;;;;;;10.37;71.65;101371.27;1757838;81;21174;-75
2021/12/10 10:57:40;;;;;;;12.15;10.82;;;;;;;10.38;71.75;101359.00;1757379;81;20940;-75
2021/12/10 11:00:32;;;;;;;15.95;12.13;;;;;;;10.39;71.88;101365.13;1757801;81;21631;-73
2021/12/10 11:03:09;;;;;;;15.25;12.55;;;;;;;10.39;72.02;101359.41;1757812;81;20956;-75
2021/12/10 11:05:46;;;;;;;21.00;12.65;;;;;;;10.38;72.02;101348.52;1757752;81;20939;-76
2021/12/10 11:08:13;;;;;;;18.12;12.40;;;;;;;10.34;72.06;101337.81;1757872;81;21191;-74
2021/12/10 11:10:43;;;;;;;14.73;12.53;;;;;;;10.27;72.33;101346.39;1758080;81;21018;-73
2021/12/10 11:13:20;;;;;;;19.52;13.93;;;;;;;10.23;72.55;101357.09;1757953;81;20931;-72
2021/12/10 11:16:08;;;;;;;16.52;12.50;;;;;;;10.20;72.67;101356.75;1758191;80;20936;-72
2021/12/10 11:18:53;;;;;;;17.35;13.08;;;;;;;10.17;72.91;101358.22;1757750;81;20972;-74
2021/12/10 11:21:58;;;;;;;14.87;11.28;;;;;;;10.14;73.16;101355.75;1758102;81;21521;-72
2021/12/10 11:24:43;;;;;;;20.45;13.58;;;;;;;10.15;73.31;101360.05;1757145;80;20889;-73
2021/12/10 11:27:12;;;;;;;15.90;13.95;;;;;;;10.13;73.53;101363.20;1757701;80;21441;-69
2021/12/10 11:29:55;;;;;;;17.92;14.75;;;;;;;10.13;73.68;101367.14;1757838;81;20975;-73
2021/12/10 11:32:37;;;;;;;13.98;12.45;;;;;;;10.10;73.77;101358.12;1757926;81;20979;-72